Historyczne dane pomiarowe

Dodano dane terminowe – wersja testowa.

Dane z okresu 1951-2019

Wersja bazy: 1.34 [2019-03-16, lista zmian], aktualizacja planowana na 2019-04-15

Dane meteo z obszaru Polski uzyskane na podstawie danych udostępnionych przez Instytut Meteorologii i Gospodarki Wodnej – Państwowy Instytut Badawczy.

 

Wybierz Datę:    

       

TemperaturaWilgotnośćWiatrCiśnienieOpadyŚniegCzas trwania zjawisk
 Stacja t tx tn tng RH VA  wxwx mslp ppp RRR   cm mm wxwxwxwxwxwxwx
1983-08-14 9.8 13.5 7.4 6.5 83.8 10.1 7.4 1.0 0.0 0.0- 918.9 0.0 0.0 0.0- 0.0 2.0 0.3--- 5.0--
1983-08-13 11.7 17.6 9.4 7.4 85.3 11.7 7.3 2.0 0.0 0.0- 909.6 11.0 5.0 6.0- 0.0 0.1 6.4--- 7.9- 0.7
1983-08-12 16.1 21.7 11.4 9.3 79.3 14.2 4.0 1.1 0.0 0.0- 911.8 0.0 0.0 0.0- 0.0 9.4---- 15.0--
1983-08-11 15.4 19.9 11.4 7.9 87.1 15.1 6.3 0.8 0.0 0.0- 914.5 7.1 7.1 0.0- 0.0 1.4 2.2--- 12.0- 1.4
1983-08-10 15.7 20.7 10.9 7.9 78.6 13.6 4.6 0.6 0.0 0.0- 920.1 0.0 0.0 0.0- 0.0 9.0---- 14.0--
1983-08-09 14.6 21.1 11.6 10.6 89.8 14.9 5.5 0.8 0.0 0.0- 924.4 3.3 3.3 0.0- 0.0 4.4 1.6--- 4.0- 0.9
1983-08-08 14.2 18.4 10.4 8.5 89.9 14.5 7.4 0.9 0.0 0.0- 923.2 11.1 10.1 1.0- 0.0 3.3 5.4----- 2.0
1983-08-07 11.9 14.0 10.2 9.4 95.3 13.2 8.0 0.6 0.0 0.0- 919.9 9.5 2.0 7.5- 0.0 0.0 13.0-- 2.2-- 1.3
1983-08-06 11.3 14.5 8.6 8.1 86.3 11.5 7.5 0.3 0.0 0.0- 917.7 4.6 0.0 4.6- 0.0 0.2 0.8--- 11.8--
1983-08-05 9.5 12.7 6.9 6.8 87.6 10.4 7.5 0.5 0.0 0.0- 915.4 0.0 0.0 0.0- 0.0 0.1 0.7--- 5.0--
1983-08-04 9.2 16.7 7.9 8.6 95.0 11.0 8.0 1.3 0.0 0.0- 915.8 6.6 5.9 0.7- 0.0 0.0 15.6------
1983-08-03 17.0 23.1 15.6 14.9 87.8 16.9 7.3 0.8 0.0 0.0- 913.3 9.8 4.7 5.1- 0.0 2.9 2.0----- 1.1
1983-08-02 18.0 25.6 12.7 8.3 83.4 16.9 5.8 0.5 0.0 0.0- 916.0 3.5 3.4 0.1- 0.0 5.0 3.0-- 0.6 7.0- 2.2
1983-08-01 17.7 26.5 7.1 2.9 73.9 14.6 0.0 0.8 0.0 0.0- 918.3 0.0 0.0 0.0- 0.0 12.0---- 11.0--
1983-07-31 15.8 22.2 8.8 5.9 72.9 12.6 1.0 0.9 0.0 0.0- 920.8 0.0 0.0 0.0- 0.0 12.8---- 11.0--
1983-07-30 14.6 17.8 12.8 11.9 84.5 14.0 6.4 1.5 0.0 0.0- 918.4 0.0 0.0 0.0- 0.0 1.5 2.0--- 5.0--
1983-07-29 16.7 21.1 12.6 9.8 74.6 13.9 5.5 2.1 0.0 0.0- 918.0 0.3 0.0 0.3- 0.0 3.9---- 8.0--
1983-07-28 20.8 25.5 16.8 13.4 70.8 17.2 6.1 1.6 0.0 0.0- 920.3 0.0 0.0 0.0- 0.0 3.9---- 9.0--
1983-07-27 19.7 27.4 11.5 7.4 63.5 13.6 1.0 1.3 0.0 0.0- 922.0 0.0 0.0 0.0- 0.0 11.9---- 11.0--
1983-07-26 16.6 22.5 12.2 10.2 72.8 13.5 4.6 1.4 0.0 0.0- 921.9 0.0 0.0 0.0- 0.0 6.8---- 5.0--
1983-07-25 13.5 17.4 10.5 9.3 76.0 11.7 6.3 1.4 0.0 0.0- 917.7 0.0 0.0 0.0- 0.0 6.7-------
1983-07-24 15.3 20.5 10.8 5.1 75.9 12.9 6.4 1.1 0.0 0.0- 914.7 0.2 0.0 0.2- 0.0 6.4 0.3--- 8.8--
1983-07-23 13.3 17.1 10.5 10.1 85.0 12.9 7.1 2.0 0.0 0.0- 915.0 0.0 0.0 0.0- 0.0 3.1 2.4--- 4.0--
1983-07-22 9.5 11.7 5.6 1.7 85.3 10.2 7.5 1.9 0.0 0.0- 919.0 11.5 0.0 11.5- 0.0 0.0 7.3--- 7.0--
1983-07-21 8.1 11.4 5.6 3.0 81.9 8.8 6.6 1.8 0.0 0.0- 920.3 1.4 1.4 0.0- 0.0 1.9 4.1--- 7.1--
1983-07-20 15.3 23.0 11.0 10.1 79.1 13.7 5.6 2.4 0.0 0.0- 919.3 2.5 0.0 2.5- 0.0 6.0 0.8--- 5.0--
1983-07-19 19.9 27.4 12.7 9.3 69.4 15.6 2.5 2.1 0.0 0.0- 921.6 0.2 0.1 0.1- 0.0 9.8 1.1--- 8.6--
1983-07-18 19.9 26.9 12.3 9.6 60.6 13.2 0.9 0.9 0.0 0.0- 922.7 0.4 0.0 0.4- 0.0 12.4---- 10.0--
1983-07-17 18.3 23.3 12.3 9.7 69.6 14.4 3.4 1.4 0.0 0.0- 921.4 0.0 0.0 0.0- 0.0 11.0---- 11.0--
1983-07-16 17.3 23.7 9.7 6.3 68.8 13.0 1.9 1.1 0.0 0.0- 919.7 0.0 0.0 0.0- 0.0 11.6---- 11.0--
1983-07-15 15.6 20.0 12.2 11.0 78.1 13.5 3.5 1.0 0.0 0.0- 918.8 0.0 0.0 0.0- 0.0 8.9 1.1--- 5.0--
1983-07-14 13.1 18.4 11.9 10.4 96.8 14.6 7.8 1.0 0.0 0.0- 914.5109.2 82.8 26.4- 0.0 0.0 18.8----- 3.3
1983-07-13 15.8 20.3 11.8 9.4 84.1 14.8 7.4 2.0 0.0 0.0- 913.6 2.4 0.2 2.2- 0.0 2.3 6.0----- 3.0
1983-07-12 13.4 17.1 11.7 9.6 95.0 14.5 6.9 1.3 0.0 0.0- 916.5 67.7 47.3 20.4- 0.0 0.1 7.6----- 3.0
1983-07-11 15.5 20.6 12.8 9.8 81.6 14.2 6.9 1.3 0.0 0.0- 920.9 10.9 2.0 8.9- 0.0 2.3 3.5--- 5.5- 3.3
1983-07-10 18.2 23.3 12.5 8.4 63.8 12.9 4.5 0.6 0.0 0.0- 922.4 0.0 0.0 0.0- 0.0 10.9 0.1--- 10.0--
1983-07-09 16.7 22.8 8.1 4.4 67.8 12.6 3.8 1.1 0.0 0.0- 920.4 0.0 0.0 0.0- 0.0 12.1---- 10.0--
1983-07-08 16.8 22.8 10.3 5.8 65.4 11.9 0.3 1.0 0.0 0.0- 917.7 0.0 0.0 0.0- 0.0 13.4---- 9.0--
1983-07-07 18.6 24.5 12.9 9.0 72.8 15.1 3.3 0.9 0.0 0.0- 919.9 0.0 0.0 0.0- 0.0 5.4---- 11.0--
1983-07-06 17.9 23.9 10.6 7.1 72.1 14.3 2.9 0.8 0.0 0.0- 923.9 0.0 0.0 0.0- 0.0 8.2---- 10.0--
1983-07-05 16.4 22.7 8.8 4.2 69.5 12.6 3.1 0.8 0.0 0.0- 924.7 0.0 0.0 0.0- 0.0 9.2---- 12.0--
1983-07-04 15.7 21.8 8.9 4.8 72.1 12.4 2.5 0.8 0.0 0.0- 922.6 0.0 0.0 0.0- 0.0 10.2---- 13.0--
1983-07-03 16.0 20.0 13.5 12.0 75.6 13.5 5.6 0.8 0.0 0.0- 923.1 0.0 0.0 0.0- 0.0 7.5---- 2.0--
1983-07-02 14.6 17.2 12.1 10.9 89.4 14.8 8.0 1.0 0.0 0.0- 922.1 0.0 0.0 0.0- 0.0 0.2 0.9------
1983-07-01 14.9 21.9 7.3 2.9 76.5 12.6 4.6 1.0 0.0 0.0- 918.5 19.4 12.4 7.0- 0.0 8.8 6.4--- 7.0- 4.8
1983-06-30 13.1 20.3 4.9 1.1 72.9 10.8 2.9 1.1 0.0 0.0- 917.5 0.0 0.0 0.0- 0.0 11.9---- 11.0--
1983-06-29 10.4 14.7 7.3 6.7 76.4 9.4 6.5 0.9 0.0 0.0- 917.4 0.0 0.0 0.0- 0.0 3.8---- 5.0--
1983-06-28 12.4 18.4 10.6 9.6 94.4 13.6 7.8 1.1 0.0 0.0- 912.5 8.8 7.4 1.4- 0.0 0.0 15.1----- 0.8
1983-06-27 16.9 23.6 9.6 6.2 71.1 13.2 4.1 1.3 0.0 0.0- 915.7 8.0 2.1 5.9- 0.0 5.9 1.4--- 9.0- 1.1
1983-06-26 15.8 22.4 11.3 7.5 82.8 14.6 6.1 1.3 0.0 0.0- 919.8 2.5 2.5 0.0- 0.0 2.8 1.8--- 9.5- 5.9
1983-06-25 16.2 23.8 7.7 3.2 68.0 12.0 0.8 1.3 0.0 0.0- 920.9 0.1 0.0 0.1- 0.0 13.3---- 8.0--
1983-06-24 14.9 22.3 5.7 0.6 62.9 10.0 0.8 1.6 0.0 0.0- 921.0 0.0 0.0 0.0- 0.0 12.7---- 12.0--
1983-06-23 10.8 18.2 1.5 -2.3 66.6 8.3 0.4 1.1 0.0 0.0- 920.4 0.0 0.0 0.0- 0.0 13.5---- 5.0 4.0-
1983-06-22 12.6 18.3 9.5 5.8 73.4 10.5 3.4 2.1 0.0 0.0- 920.8 0.0 0.0 0.0- 0.0 11.0---- 13.0--
1983-06-21 16.0 20.8 11.2 9.1 77.8 13.7 4.9 1.1 0.0 0.0- 921.6 0.0 0.0 0.0- 0.0 7.8---- 2.0--
1983-06-20 13.7 17.2 10.9 9.8 95.1 15.0 7.3 1.0 0.0 0.0- 919.3 0.4 0.1 0.3- 0.0 1.1 6.1--- 0.6--
1983-06-19 9.9 11.4 7.4 7.3100.0 12.2 8.0 0.1 0.0 0.0- 917.9 50.3 29.5 20.8- 0.0 0.0 22.4----- 0.5
1983-06-18 7.6 9.5 6.2 5.8 98.8 10.3 8.0 0.1 0.0 0.0- 921.7 32.7 4.8 27.9- 0.0 0.0 19.9------
1983-06-17 7.1 8.5 6.4 6.3 94.5 9.5 8.0 0.9 0.0 0.0- 920.5 22.1 2.7 19.4- 0.0 0.0 17.2------
1983-06-16 6.8 11.1 5.6 5.9 96.9 9.6 8.0 1.0 0.0 0.0- 918.7 21.8 10.3 11.5- 0.0 0.0 24.0------
621.1 ms

 

Źródłem pochodzenia danych jest Instytut Meteorologii i Gospodarki Wodnej – Państwowy Instytut Badawczy. Dane Instytutu Meteorologii i Gospodarki Wodnej – Państwowego Instytutu Badawczego zostały przetworzone.

Dane źródłowe można odnaleźć na stronie https://dane.imgw.pl